createdAt,value
2022-12-01T00:01:05.185Z,17.60
2022-12-01T00:06:11.197Z,20.20
2022-12-01T00:11:15.273Z,16.80
2022-12-01T00:16:18.367Z,17.87
2022-12-01T00:21:22.908Z,18.40
2022-12-01T00:26:28.001Z,19.50
2022-12-01T00:31:30.771Z,17.90
2022-12-01T00:36:33.962Z,17.80
2022-12-01T00:41:38.046Z,17.03
2022-12-01T00:46:40.813Z,16.87
2022-12-01T00:51:43.602Z,17.73
2022-12-01T00:56:47.843Z,17.27
2022-12-01T01:01:50.654Z,15.57
2022-12-01T01:06:53.797Z,14.87
2022-12-01T01:11:57.911Z,16.20
2022-12-01T01:17:00.684Z,15.47
2022-12-01T01:22:03.490Z,16.57
2022-12-01T01:27:07.579Z,17.37
2022-12-01T01:32:10.411Z,14.57
2022-12-01T01:37:13.183Z,16.60
2022-12-01T01:42:20.038Z,14.50
2022-12-01T01:47:26.655Z,13.83
2022-12-01T01:52:29.588Z,15.60
2022-12-01T01:57:35.166Z,15.37
2022-12-01T02:02:40.500Z,15.43
2022-12-01T02:07:43.751Z,18.03
2022-12-01T02:13:08.706Z,15.37
2022-12-01T02:18:22.727Z,14.03
2022-12-01T02:24:08.236Z,15.37
2022-12-01T02:29:40.334Z,14.93
2022-12-01T02:34:46.118Z,14.70
2022-12-01T02:39:56.332Z,15.30
2022-12-01T02:44:59.990Z,13.43
2022-12-01T02:50:04.984Z,13.63
2022-12-01T02:55:08.571Z,15.13
2022-12-01T03:00:14.449Z,13.63
2022-12-01T03:05:24.497Z,14.60
2022-12-01T03:10:30.857Z,13.17
2022-12-01T03:15:37.396Z,13.70
2022-12-01T03:20:43.959Z,13.03
2022-12-01T03:25:49.635Z,14.03
2022-12-01T03:30:53.754Z,13.40
2022-12-01T03:36:02.456Z,13.10
2022-12-01T03:41:09.385Z,11.27
2022-12-01T03:46:15.400Z,13.00
2022-12-01T03:51:22.794Z,12.97
2022-12-01T03:56:28.138Z,15.63
2022-12-01T04:01:32.945Z,14.53
2022-12-01T04:06:37.356Z,11.97
2022-12-01T04:11:57.649Z,12.77
2022-12-01T04:17:00.710Z,11.13
2022-12-01T04:22:04.847Z,11.60
2022-12-01T04:27:07.750Z,10.77
2022-12-01T04:32:10.531Z,13.03
2022-12-01T04:37:14.846Z,11.20
2022-12-01T04:42:17.675Z,12.03
2022-12-01T04:47:20.405Z,11.73
2022-12-01T04:52:24.602Z,10.67
2022-12-01T04:57:27.509Z,10.20
2022-12-01T05:02:30.371Z,12.73
2022-12-01T05:07:34.604Z,11.67
2022-12-01T05:12:37.397Z,13.73
2022-12-01T05:17:40.132Z,11.10
2022-12-01T05:23:04.929Z,10.47
2022-12-01T05:28:07.079Z,11.17
2022-12-01T05:33:09.824Z,9.83
2022-12-01T05:38:14.130Z,11.70
2022-12-01T05:43:16.991Z,11.47
2022-12-01T05:48:19.692Z,11.67
2022-12-01T05:53:23.873Z,13.77
2022-12-01T05:58:26.758Z,10.80
2022-12-01T06:03:29.456Z,12.60
2022-12-01T06:08:33.559Z,12.30
2022-12-01T06:13:36.333Z,11.30
2022-12-01T06:18:39.557Z,11.87
2022-12-01T06:23:43.730Z,9.40
2022-12-01T06:28:46.438Z,10.93
2022-12-01T06:33:49.168Z,11.33
2022-12-01T06:38:53.280Z,11.63
2022-12-01T06:43:56.061Z,10.13
2022-12-01T06:48:58.915Z,11.63
2022-12-01T06:54:12.056Z,11.60
2022-12-01T06:59:14.857Z,13.63
2022-12-01T07:04:18.189Z,12.63
2022-12-01T07:09:22.708Z,11.77
2022-12-01T07:14:27.388Z,11.13
2022-12-01T07:19:30.086Z,15.87
2022-12-01T07:24:34.279Z,10.50
2022-12-01T07:29:37.138Z,10.00
2022-12-01T07:34:40.066Z,12.00
2022-12-01T07:39:44.190Z,12.70
2022-12-01T07:44:46.947Z,10.43
2022-12-01T07:49:50.127Z,13.00
2022-12-01T07:54:54.435Z,11.93
2022-12-01T07:59:57.142Z,12.27
2022-12-01T08:04:59.900Z,13.43
2022-12-01T08:10:04.030Z,12.50
2022-12-01T08:15:07.798Z,12.33
2022-12-01T08:20:12.133Z,12.10
2022-12-01T08:25:16.453Z,12.30
2022-12-01T08:30:19.430Z,13.30
2022-12-01T08:35:22.187Z,13.00
2022-12-01T08:40:26.649Z,12.37
2022-12-01T08:45:29.432Z,13.10
2022-12-01T08:50:32.179Z,10.60
2022-12-01T08:55:40.081Z,13.67
2022-12-01T09:00:42.778Z,11.93
2022-12-01T09:05:45.553Z,13.10
2022-12-01T09:10:53.737Z,13.47
2022-12-01T09:15:58.601Z,13.67
2022-12-01T09:21:02.123Z,14.53
2022-12-01T09:26:12.113Z,13.07
2022-12-01T09:31:18.393Z,14.50
2022-12-01T09:36:21.235Z,13.73
2022-12-01T09:41:28.518Z,14.73
2022-12-01T09:46:40.726Z,14.20
2022-12-01T09:51:43.849Z,14.73
2022-12-01T09:56:50.341Z,15.37
2022-12-01T10:01:56.775Z,14.17
2022-12-01T10:07:02.391Z,15.40
2022-12-01T10:12:14.177Z,13.83
2022-12-01T10:17:24.545Z,12.60
2022-12-01T10:22:47.645Z,13.70
2022-12-01T10:28:13.639Z,17.30
2022-12-01T10:33:23.634Z,17.53
2022-12-01T10:38:28.076Z,15.10
2022-12-01T10:43:34.836Z,16.10
2022-12-01T10:48:53.446Z,26.20
2022-12-01T10:54:01.098Z,16.20
2022-12-01T10:59:20.311Z,16.87
2022-12-01T11:04:31.012Z,15.40
2022-12-01T11:09:33.753Z,15.77
2022-12-01T11:14:46.099Z,14.73
2022-12-01T11:19:49.681Z,16.60
2022-12-01T11:25:03.939Z,16.37
2022-12-01T11:30:21.942Z,14.70
2022-12-01T11:35:26.079Z,17.17
2022-12-01T11:40:30.530Z,17.47
2022-12-01T11:45:37.124Z,16.40
2022-12-01T11:50:42.397Z,14.97
2022-12-01T11:55:45.263Z,16.27
2022-12-01T12:00:53.996Z,16.00
2022-12-01T12:06:39.586Z,17.27
2022-12-01T12:11:46.656Z,16.50
2022-12-01T12:17:08.147Z,14.93
2022-12-01T12:22:19.388Z,16.80
2022-12-01T12:27:28.667Z,16.07
2022-12-01T12:32:44.815Z,16.73
2022-12-01T12:37:55.047Z,17.83
2022-12-01T12:43:06.105Z,17.67
2022-12-01T12:48:22.224Z,16.20
2022-12-01T12:53:28.034Z,17.97
2022-12-01T12:58:35.743Z,18.93
2022-12-01T13:03:43.831Z,16.90
2022-12-01T13:08:49.283Z,16.23
2022-12-01T13:13:56.871Z,17.50
2022-12-01T13:19:06.352Z,17.30
2022-12-01T13:24:12.053Z,19.43
2022-12-01T13:29:17.191Z,17.43
2022-12-01T13:34:24.013Z,17.73
2022-12-01T13:39:28.671Z,18.23
2022-12-01T13:44:35.961Z,19.80
2022-12-01T13:49:43.785Z,20.67
2022-12-01T13:55:01.909Z,22.23
2022-12-01T14:00:24.040Z,18.33
2022-12-01T14:05:47.410Z,20.37
2022-12-01T14:10:54.698Z,17.20
2022-12-01T14:15:59.550Z,18.40
2022-12-01T14:21:05.923Z,19.87
2022-12-01T14:26:14.325Z,20.43
2022-12-01T14:31:17.217Z,18.77
2022-12-01T14:36:30.474Z,18.13
2022-12-01T14:41:41.252Z,20.77
2022-12-01T14:46:46.434Z,17.37
2022-12-01T14:51:53.980Z,18.97
2022-12-01T14:57:02.817Z,17.70
2022-12-01T15:02:11.987Z,17.53
2022-12-01T15:07:21.800Z,18.00
2022-12-01T15:12:27.570Z,16.63
2022-12-01T15:17:32.081Z,17.57
2022-12-01T15:22:36.255Z,17.43
2022-12-01T15:27:39.220Z,17.20
2022-12-01T15:32:45.604Z,15.57
2022-12-01T15:37:50.530Z,16.20
2022-12-01T15:43:04.214Z,15.27
2022-12-01T15:48:16.417Z,16.47
2022-12-01T15:53:24.327Z,15.37
2022-12-01T15:58:30.233Z,15.10
2022-12-01T16:03:33.675Z,15.97
2022-12-01T16:08:37.884Z,21.53
2022-12-01T16:13:45.925Z,19.23
2022-12-01T16:18:53.867Z,19.57
2022-12-01T16:24:03.388Z,17.47
2022-12-01T16:29:17.703Z,16.83
2022-12-01T16:34:44.493Z,15.63
2022-12-01T16:39:47.628Z,14.50
2022-12-01T16:44:51.173Z,16.00
2022-12-01T16:49:54.332Z,14.60
2022-12-01T16:54:58.600Z,14.00
2022-12-01T17:00:01.341Z,16.10
2022-12-01T17:05:04.412Z,15.60
2022-12-01T17:10:09.746Z,15.33
2022-12-01T17:15:12.514Z,16.20
2022-12-01T17:20:15.329Z,15.20
2022-12-01T17:25:19.672Z,17.27
2022-12-01T17:30:22.397Z,16.60
2022-12-01T17:35:25.168Z,16.80
2022-12-01T17:40:29.209Z,13.57
2022-12-01T17:45:33.359Z,18.33
2022-12-01T17:50:36.099Z,14.00
2022-12-01T17:55:41.312Z,17.37
2022-12-01T18:00:44.060Z,16.60
2022-12-01T18:05:46.948Z,18.33
2022-12-01T18:10:51.129Z,16.97
2022-12-01T18:15:53.945Z,17.33
2022-12-01T18:20:56.691Z,18.73
2022-12-01T18:26:03.947Z,15.77
2022-12-01T18:31:08.089Z,19.27
2022-12-01T18:36:13.297Z,17.73
2022-12-01T18:41:17.828Z,18.60
2022-12-01T18:46:22.139Z,18.80
2022-12-01T18:51:24.948Z,16.87
2022-12-01T18:56:29.406Z,19.43
2022-12-01T19:01:34.201Z,18.17
2022-12-01T19:06:38.540Z,17.20
2022-12-01T19:11:43.358Z,18.23
2022-12-01T19:16:46.935Z,19.47
2022-12-01T19:21:50.495Z,19.13
2022-12-01T19:26:54.827Z,18.50
2022-12-01T19:31:58.966Z,18.80
2022-12-01T19:37:01.785Z,19.50
2022-12-01T19:42:06.208Z,16.63
2022-12-01T19:47:10.032Z,16.13
2022-12-01T19:52:12.884Z,17.07
2022-12-01T19:57:17.337Z,20.97
2022-12-01T20:02:23.860Z,20.13
2022-12-01T20:07:29.090Z,19.73
2022-12-01T20:12:33.419Z,19.23
2022-12-01T20:17:37.185Z,20.73
2022-12-01T20:22:40.070Z,18.20
2022-12-01T20:27:45.418Z,18.63
2022-12-01T20:32:48.300Z,19.10
2022-12-01T20:37:51.060Z,19.60
2022-12-01T20:42:55.138Z,19.23
2022-12-01T20:47:58.079Z,20.07
2022-12-01T20:53:01.056Z,19.47
2022-12-01T20:58:08.512Z,19.17
2022-12-01T21:03:11.731Z,19.23
2022-12-01T21:08:14.917Z,20.13
2022-12-01T21:13:42.210Z,17.27
2022-12-01T21:18:50.835Z,20.40
2022-12-01T21:24:12.166Z,18.80
2022-12-01T21:29:21.646Z,19.53
2022-12-01T21:34:25.541Z,17.87
2022-12-01T21:39:30.257Z,18.83
2022-12-01T21:44:39.412Z,17.83
2022-12-01T21:49:42.536Z,19.43
2022-12-01T21:54:45.378Z,19.33
2022-12-01T21:59:49.642Z,19.87
2022-12-01T22:04:52.791Z,18.20
2022-12-01T22:09:55.546Z,18.77
2022-12-01T22:15:01.428Z,16.47
2022-12-01T22:20:19.213Z,19.40
2022-12-01T22:25:25.907Z,19.30
2022-12-01T22:30:30.017Z,19.07
2022-12-01T22:35:35.839Z,19.63
2022-12-01T22:40:40.616Z,18.37
2022-12-01T22:45:44.926Z,18.97
2022-12-01T22:50:51.770Z,20.10
2022-12-01T22:55:56.569Z,18.20
2022-12-01T23:01:02.511Z,19.17
2022-12-01T23:06:43.853Z,18.33
2022-12-01T23:11:50.704Z,15.43
2022-12-01T23:17:00.852Z,17.67
2022-12-01T23:22:03.699Z,15.43
2022-12-01T23:27:07.070Z,18.97
2022-12-01T23:32:12.907Z,18.00
2022-12-01T23:37:29.976Z,17.63
2022-12-01T23:42:32.812Z,18.53
2022-12-01T23:47:36.886Z,16.80
2022-12-01T23:52:39.618Z,17.50
2022-12-01T23:57:42.353Z,16.57
